createdAt,value
2017-11-19T00:00:04.444Z,7
2017-11-19T00:01:12.982Z,6.98
2017-11-19T00:02:21.799Z,7.04
2017-11-19T00:03:31.445Z,7.01
2017-11-19T00:04:40.261Z,7
2017-11-19T00:05:49.066Z,6.98
2017-11-19T00:06:58.164Z,7.03
2017-11-19T00:08:06.702Z,7.01
2017-11-19T00:09:15.520Z,7.11
2017-11-19T00:10:24.050Z,7.04
2017-11-19T00:11:32.589Z,7.04
2017-11-19T00:12:41.131Z,7.04
2017-11-19T00:13:50.223Z,6.95
2017-11-19T00:14:59.033Z,7
2017-11-19T00:16:07.843Z,6.88
2017-11-19T00:17:16.378Z,6.82
2017-11-19T00:18:25.463Z,6.82
2017-11-19T00:19:33.998Z,6.9
2017-11-19T00:20:42.808Z,6.82
2017-11-19T00:21:51.888Z,6.86
2017-11-19T00:23:00.692Z,6.79
2017-11-19T00:24:09.227Z,6.83
2017-11-19T00:25:18.381Z,6.79
2017-11-19T00:26:27.459Z,6.8
2017-11-19T00:27:36.266Z,6.79
2017-11-19T00:28:45.074Z,6.88
2017-11-19T00:29:53.890Z,6.76
2017-11-19T00:31:02.695Z,6.79
2017-11-19T00:32:11.504Z,6.86
2017-11-19T00:33:20.313Z,6.76
2017-11-19T00:34:28.851Z,6.8
2017-11-19T00:35:37.659Z,6.85
2017-11-19T00:36:46.468Z,6.79
2017-11-19T00:37:55.557Z,6.76
2017-11-19T00:39:04.367Z,6.83
2017-11-19T00:40:12.897Z,6.78
2017-11-19T00:41:21.719Z,6.78
2017-11-19T00:42:30.805Z,6.76
2017-11-19T00:43:39.891Z,6.83
2017-11-19T00:44:48.426Z,6.76
2017-11-19T00:45:57.240Z,6.75
2017-11-19T00:47:06.315Z,6.88
2017-11-19T00:48:15.124Z,6.8
2017-11-19T00:49:24.204Z,6.82
2017-11-19T00:50:32.738Z,6.76
2017-11-19T00:51:41.708Z,6.76
2017-11-19T00:52:50.523Z,6.78
2017-11-19T00:53:59.602Z,6.76
2017-11-19T00:55:08.410Z,6.8
2017-11-19T00:56:16.943Z,6.8
2017-11-19T00:57:25.748Z,6.79
2017-11-19T00:58:34.285Z,6.73
2017-11-19T00:59:43.093Z,6.76
2017-11-19T01:00:51.632Z,6.72
2017-11-19T01:02:00.170Z,6.78
2017-11-19T01:03:08.703Z,6.76
2017-11-19T01:04:17.509Z,6.8
2017-11-19T01:05:26.046Z,6.76
2017-11-19T01:06:34.585Z,6.78
2017-11-19T01:07:43.397Z,6.88
2017-11-19T01:08:52.480Z,6.76
2017-11-19T01:10:01.517Z,6.83
2017-11-19T01:11:10.428Z,6.8
2017-11-19T01:12:19.501Z,6.83
2017-11-19T01:13:28.038Z,6.85
2017-11-19T01:14:36.853Z,6.75
2017-11-19T01:15:45.391Z,6.8
2017-11-19T01:16:53.927Z,6.8
2017-11-19T01:18:03.009Z,6.73
2017-11-19T01:19:11.819Z,6.75
2017-11-19T01:20:20.628Z,6.76
2017-11-19T01:21:29.168Z,6.76
2017-11-19T01:22:37.729Z,6.7
2017-11-19T01:23:46.619Z,6.76
2017-11-19T01:24:56.109Z,6.7
2017-11-19T01:26:05.347Z,6.76
2017-11-19T01:27:14.433Z,6.76
2017-11-19T01:28:22.968Z,6.76
2017-11-19T01:29:31.776Z,6.75
2017-11-19T01:30:40.861Z,6.64
2017-11-19T01:31:49.402Z,6.72
2017-11-19T01:32:57.940Z,6.67
2017-11-19T01:34:07.293Z,6.7
2017-11-19T01:35:16.482Z,6.58
2017-11-19T01:36:25.291Z,6.62
2017-11-19T01:37:33.825Z,6.6
2017-11-19T01:38:43.179Z,6.61
2017-11-19T01:39:52.260Z,6.55
2017-11-19T01:41:01.084Z,6.44
2017-11-19T01:42:09.609Z,6.42
2017-11-19T01:43:18.419Z,6.34
2017-11-19T01:44:27.765Z,6.42
2017-11-19T01:45:36.576Z,6.37
2017-11-19T01:46:45.658Z,6.31
2017-11-19T01:47:54.743Z,6.34
2017-11-19T01:49:03.836Z,6.25
2017-11-19T01:50:12.369Z,6.33
2017-11-19T01:51:21.178Z,6.25
2017-11-19T01:52:30.255Z,6.14
2017-11-19T01:53:39.335Z,6.09
2017-11-19T01:54:48.143Z,6.18
2017-11-19T01:55:56.953Z,6.15
2017-11-19T01:57:05.486Z,6.14
2017-11-19T01:58:14.837Z,6.17
2017-11-19T01:59:23.916Z,6.09
2017-11-19T02:00:32.453Z,6.17
2017-11-19T02:01:40.990Z,6.13
2017-11-19T02:02:49.800Z,6.13
2017-11-19T02:03:59.158Z,6.15
2017-11-19T02:05:07.972Z,6.18
2017-11-19T02:06:17.060Z,6.18
2017-11-19T02:07:25.601Z,6.15
2017-11-19T02:08:34.134Z,6.09
2017-11-19T02:09:43.503Z,6.17
2017-11-19T02:10:52.315Z,6.07
2017-11-19T02:12:00.852Z,6.17
2017-11-19T02:13:09.384Z,6.03
2017-11-19T02:14:17.920Z,6.03
2017-11-19T02:15:26.460Z,6.15
2017-11-19T02:16:34.993Z,6.05
2017-11-19T02:17:43.528Z,6.05
2017-11-19T02:18:52.064Z,6.05
2017-11-19T02:20:00.884Z,6.03
2017-11-19T02:21:09.693Z,6.05
2017-11-19T02:22:18.228Z,6.05
2017-11-19T02:23:26.822Z,6.05
2017-11-19T02:24:35.363Z,6.03
2017-11-19T02:25:44.229Z,6.06
2017-11-19T02:26:53.101Z,6.06
2017-11-19T02:28:01.860Z,6.07
2017-11-19T02:29:10.941Z,5.88
2017-11-19T02:30:19.478Z,5.92
2017-11-19T02:31:28.557Z,5.99
2017-11-19T02:32:37.657Z,5.96
2017-11-19T02:33:46.462Z,5.92
2017-11-19T02:34:55.282Z,5.87
2017-11-19T02:36:04.090Z,5.85
2017-11-19T02:37:12.635Z,5.87
2017-11-19T02:38:21.477Z,5.8
2017-11-19T02:39:30.294Z,5.78
2017-11-19T02:40:39.216Z,5.82
2017-11-19T02:41:49.050Z,5.77
2017-11-19T02:42:58.125Z,5.77
2017-11-19T02:44:06.935Z,5.72
2017-11-19T02:45:15.745Z,5.7
2017-11-19T02:46:24.553Z,5.67
2017-11-19T02:47:33.629Z,5.66
2017-11-19T02:48:42.167Z,5.67
2017-11-19T02:49:51.529Z,5.64
2017-11-19T02:51:00.345Z,5.66
2017-11-19T02:52:09.153Z,5.6
2017-11-19T02:53:17.967Z,5.59
2017-11-19T02:54:26.502Z,5.62
2017-11-19T02:55:35.582Z,5.51
2017-11-19T02:56:44.118Z,5.55
2017-11-19T02:57:52.654Z,5.54
2017-11-19T02:59:01.190Z,5.51
2017-11-19T03:00:10.002Z,5.57
2017-11-19T03:01:18.546Z,5.49
2017-11-19T03:02:27.353Z,5.54
2017-11-19T03:03:36.158Z,5.46
2017-11-19T03:04:45.514Z,5.41
2017-11-19T03:05:54.317Z,5.37
2017-11-19T03:07:02.851Z,5.39
2017-11-19T03:08:11.670Z,5.39
2017-11-19T03:09:20.777Z,5.39
2017-11-19T03:10:29.584Z,5.37
2017-11-19T03:11:38.394Z,5.34
2017-11-19T03:12:47.204Z,5.31
2017-11-19T03:13:55.739Z,5.33
2017-11-19T03:15:04.276Z,5.18
2017-11-19T03:16:13.640Z,5.24
2017-11-19T03:17:22.176Z,5.2
2017-11-19T03:18:30.990Z,5.21
2017-11-19T03:19:39.524Z,5.24
2017-11-19T03:20:48.063Z,5.13
2017-11-19T03:21:57.146Z,5.2
2017-11-19T03:23:05.956Z,5.23
2017-11-19T03:24:15.050Z,5.09
2017-11-19T03:25:23.596Z,5.16
2017-11-19T03:26:32.396Z,5.21
2017-11-19T03:27:41.203Z,5.16
2017-11-19T03:28:50.016Z,5.15
2017-11-19T03:29:58.553Z,5.16
2017-11-19T03:31:07.371Z,5.12
2017-11-19T03:32:16.178Z,5.18
2017-11-19T03:33:25.258Z,5.12
2017-11-19T03:34:34.340Z,5.09
2017-11-19T03:35:43.421Z,5.05
2017-11-19T03:36:51.961Z,4.98
2017-11-19T03:38:00.766Z,5.09
2017-11-19T03:39:09.303Z,5.09
2017-11-19T03:40:18.378Z,4.97
2017-11-19T03:41:26.913Z,5.06
2017-11-19T03:42:35.446Z,5.03
2017-11-19T03:43:43.980Z,4.97
2017-11-19T03:44:52.785Z,4.94
2017-11-19T03:46:01.597Z,4.9
2017-11-19T03:47:10.952Z,4.95
2017-11-19T03:48:19.486Z,4.9
2017-11-19T03:49:28.293Z,4.87
2017-11-19T03:50:37.372Z,4.95
2017-11-19T03:51:46.180Z,4.79
2017-11-19T03:52:54.719Z,4.84
2017-11-19T03:54:03.795Z,4.87
2017-11-19T03:55:12.990Z,4.78
2017-11-19T03:56:21.799Z,4.88
2017-11-19T03:57:30.334Z,4.76
2017-11-19T03:58:39.429Z,4.74
2017-11-19T03:59:48.511Z,4.76
2017-11-19T04:00:57.590Z,4.74
2017-11-19T04:02:06.394Z,4.68
2017-11-19T04:03:15.202Z,4.65
2017-11-19T04:04:24.015Z,4.65
2017-11-19T04:05:32.552Z,4.68
2017-11-19T04:06:41.087Z,4.76
2017-11-19T04:07:49.896Z,4.69
2017-11-19T04:08:58.706Z,4.74
2017-11-19T04:10:07.512Z,4.64
2017-11-19T04:11:16.324Z,4.64
2017-11-19T04:12:24.860Z,4.64
2017-11-19T04:13:33.947Z,4.71
2017-11-19T04:14:43.026Z,4.65
2017-11-19T04:15:52.105Z,4.71
2017-11-19T04:17:00.640Z,4.66
2017-11-19T04:18:09.448Z,4.69
2017-11-19T04:19:17.984Z,4.74
2017-11-19T04:20:26.794Z,4.74
2017-11-19T04:21:35.327Z,4.72
2017-11-19T04:22:43.863Z,4.84
2017-11-19T04:23:52.946Z,4.76
2017-11-19T04:25:01.761Z,4.85
2017-11-19T04:26:10.837Z,4.91
2017-11-19T04:27:19.924Z,4.97
2017-11-19T04:28:28.740Z,5.03
2017-11-19T04:29:37.824Z,5.05
2017-11-19T04:30:46.634Z,4.98
2017-11-19T04:31:55.444Z,5.09
2017-11-19T04:33:03.978Z,5.08
2017-11-19T04:34:12.784Z,5.06
2017-11-19T04:35:21.588Z,5.12
2017-11-19T04:36:30.946Z,5.03
2017-11-19T04:37:39.752Z,5.1
2017-11-19T04:38:48.560Z,5.09
2017-11-19T04:39:57.105Z,5.08
2017-11-19T04:41:05.633Z,5
2017-11-19T04:42:14.442Z,5
2017-11-19T04:43:23.247Z,4.98
2017-11-19T04:44:31.778Z,4.95
2017-11-19T04:45:40.864Z,4.97
2017-11-19T04:46:49.671Z,4.94
2017-11-19T04:47:58.207Z,5.03
2017-11-19T04:49:06.742Z,4.97
2017-11-19T04:50:15.277Z,4.9
2017-11-19T04:51:23.809Z,4.9
2017-11-19T04:52:32.625Z,4.91
2017-11-19T04:53:41.443Z,4.92
2017-11-19T04:54:49.975Z,4.94
2017-11-19T04:55:58.512Z,5.02
2017-11-19T04:57:07.046Z,4.97
2017-11-19T04:58:15.850Z,4.94
2017-11-19T04:59:24.384Z,4.92
2017-11-19T05:00:33.044Z,5
2017-11-19T05:01:42.214Z,5.03
2017-11-19T05:02:51.357Z,5
2017-11-19T05:04:00.244Z,5.05
2017-11-19T05:05:09.101Z,4.92
2017-11-19T05:06:18.287Z,4.85
2017-11-19T05:07:27.784Z,4.92
2017-11-19T05:08:36.630Z,4.91
2017-11-19T05:09:45.819Z,4.95
2017-11-19T05:10:54.983Z,4.88
2017-11-19T05:12:04.532Z,4.88
2017-11-19T05:13:13.690Z,4.84
2017-11-19T05:14:23.188Z,4.85
2017-11-19T05:15:32.509Z,4.83
2017-11-19T05:16:41.349Z,4.75
2017-11-19T05:17:50.213Z,4.87
2017-11-19T05:18:59.277Z,4.76
2017-11-19T05:20:08.366Z,4.79
2017-11-19T05:21:17.174Z,4.76
2017-11-19T05:22:25.978Z,4.74
2017-11-19T05:23:34.512Z,4.78
2017-11-19T05:24:43.326Z,4.74
2017-11-19T05:25:52.130Z,4.72
2017-11-19T05:27:00.667Z,4.74
2017-11-19T05:28:09.476Z,4.76
2017-11-19T05:29:18.283Z,4.83
2017-11-19T05:30:26.820Z,4.79
2017-11-19T05:31:35.628Z,4.76
2017-11-19T05:32:44.446Z,4.76
2017-11-19T05:33:53.250Z,4.78
2017-11-19T05:35:01.779Z,4.79
2017-11-19T05:36:10.587Z,4.76
2017-11-19T05:37:19.124Z,4.78
2017-11-19T05:38:27.934Z,4.71
2017-11-19T05:39:36.753Z,4.85
2017-11-19T05:40:45.832Z,4.91
2017-11-19T05:41:54.367Z,4.91
2017-11-19T05:43:03.182Z,4.87
2017-11-19T05:44:11.718Z,4.91
2017-11-19T05:45:20.810Z,4.91
2017-11-19T05:46:29.619Z,4.92
2017-11-19T05:47:38.154Z,4.94
2017-11-19T05:48:46.963Z,4.95
2017-11-19T05:49:56.048Z,4.95
2017-11-19T05:51:04.585Z,5.05
2017-11-19T05:52:13.391Z,5.03
2017-11-19T05:53:22.206Z,5.06
2017-11-19T05:54:31.293Z,5.15
2017-11-19T05:55:40.370Z,5.13
2017-11-19T05:56:49.179Z,5.12
2017-11-19T05:57:57.744Z,5.1
2017-11-19T05:59:06.824Z,5.13
2017-11-19T06:00:15.358Z,5.13
2017-11-19T06:01:24.711Z,5.08
2017-11-19T06:02:33.519Z,5.24
2017-11-19T06:03:42.330Z,5.16
2017-11-19T06:04:50.863Z,5.16
2017-11-19T06:05:59.397Z,5.13
2017-11-19T06:07:07.930Z,5.24
2017-11-19T06:08:16.735Z,5.21
2017-11-19T06:09:25.817Z,5.28
2017-11-19T06:10:34.350Z,5.21
2017-11-19T06:11:42.885Z,5.24
2017-11-19T06:12:51.693Z,5.2
2017-11-19T06:14:00.507Z,5.27
2017-11-19T06:15:09.323Z,5.13
2017-11-19T06:16:18.134Z,5.18
2017-11-19T06:17:26.943Z,5.13
2017-11-19T06:18:35.476Z,5.15
2017-11-19T06:19:44.290Z,5.13
2017-11-19T06:20:53.365Z,5.08
2017-11-19T06:22:02.176Z,5.13
2017-11-19T06:23:10.713Z,5.08
2017-11-19T06:24:19.246Z,5.15
2017-11-19T06:25:28.075Z,5.03
2017-11-19T06:26:36.878Z,5.02
2017-11-19T06:27:45.411Z,5.06
2017-11-19T06:28:53.948Z,5
2017-11-19T06:30:02.490Z,5.15
2017-11-19T06:31:11.289Z,5.05
2017-11-19T06:32:20.126Z,5.08
2017-11-19T06:33:28.662Z,5.02
2017-11-19T06:34:37.740Z,5.06
2017-11-19T06:35:46.559Z,5.05
2017-11-19T06:36:55.364Z,5.1
2017-11-19T06:38:03.898Z,4.95
2017-11-19T06:39:12.719Z,4.95
2017-11-19T06:40:21.248Z,4.95
2017-11-19T06:41:30.056Z,5.02
2017-11-19T06:42:39.133Z,4.88
2017-11-19T06:43:47.669Z,4.88
2017-11-19T06:44:56.201Z,4.85
2017-11-19T06:46:05.277Z,4.84
2017-11-19T06:47:14.362Z,4.91
2017-11-19T06:48:23.168Z,4.88
2017-11-19T06:49:32.255Z,4.78
2017-11-19T06:50:40.792Z,4.85
2017-11-19T06:51:49.327Z,4.88
2017-11-19T06:52:57.861Z,4.74
2017-11-19T06:54:06.398Z,4.79
2017-11-19T06:55:14.935Z,4.78
2017-11-19T06:56:23.470Z,4.83
2017-11-19T06:57:32.278Z,4.74
2017-11-19T06:58:40.812Z,4.76
2017-11-19T06:59:49.620Z,4.76
2017-11-19T07:00:58.706Z,4.79
2017-11-19T07:02:07.244Z,4.75
2017-11-19T07:03:16.320Z,4.74
2017-11-19T07:04:24.854Z,4.75
2017-11-19T07:05:33.387Z,4.78
2017-11-19T07:06:42.194Z,4.65
2017-11-19T07:07:51.003Z,4.69
2017-11-19T07:08:59.535Z,4.71
2017-11-19T07:10:08.068Z,4.76
2017-11-19T07:11:16.603Z,4.72
2017-11-19T07:12:25.680Z,4.65
2017-11-19T07:13:34.487Z,4.66
2017-11-19T07:14:43.302Z,4.72
2017-11-19T07:15:52.111Z,4.61
2017-11-19T07:17:01.201Z,4.71
2017-11-19T07:18:10.007Z,4.78
2017-11-19T07:19:18.541Z,4.66
2017-11-19T07:20:27.079Z,4.65
2017-11-19T07:21:36.166Z,4.65
2017-11-19T07:22:44.996Z,4.74
2017-11-19T07:23:54.079Z,4.68
2017-11-19T07:25:03.157Z,4.69
2017-11-19T07:26:11.702Z,4.69
2017-11-19T07:27:20.518Z,4.68
2017-11-19T07:28:29.335Z,4.75
2017-11-19T07:29:37.918Z,4.68
2017-11-19T07:30:46.451Z,4.65
2017-11-19T07:31:55.266Z,4.71
2017-11-19T07:33:03.801Z,4.75
2017-11-19T07:34:12.611Z,4.75
2017-11-19T07:35:21.195Z,4.66
2017-11-19T07:36:30.017Z,4.66
2017-11-19T07:37:38.537Z,4.74
2017-11-19T07:38:47.895Z,4.71
2017-11-19T07:39:56.430Z,4.75
2017-11-19T07:41:05.236Z,4.68
2017-11-19T07:42:14.585Z,4.71
2017-11-19T07:43:23.674Z,4.78
2017-11-19T07:44:32.483Z,4.75
2017-11-19T07:45:41.290Z,4.79
2017-11-19T07:46:50.096Z,4.76
2017-11-19T07:47:58.644Z,4.78
2017-11-19T07:49:07.453Z,4.87
2017-11-19T07:50:15.983Z,4.87
2017-11-19T07:51:24.787Z,4.78
2017-11-19T07:52:33.596Z,4.75
2017-11-19T07:53:42.401Z,4.84
2017-11-19T07:54:51.209Z,4.91
2017-11-19T07:55:59.743Z,4.95
2017-11-19T07:57:08.551Z,4.88
2017-11-19T07:58:18.177Z,4.92
2017-11-19T07:59:26.717Z,4.92
2017-11-19T08:00:35.525Z,4.91
2017-11-19T08:01:44.065Z,4.97
2017-11-19T08:02:53.422Z,5.02
2017-11-19T08:04:02.505Z,4.97
2017-11-19T08:05:11.591Z,5
2017-11-19T08:06:20.410Z,4.94
2017-11-19T08:07:29.220Z,5.1
2017-11-19T08:08:38.020Z,5.05
2017-11-19T08:09:47.113Z,5.06
2017-11-19T08:10:55.915Z,4.98
2017-11-19T08:12:05.277Z,5.05
2017-11-19T08:13:14.085Z,5.05
2017-11-19T08:14:23.178Z,5.15
2017-11-19T08:15:32.280Z,5.21
2017-11-19T08:16:40.815Z,5.15
2017-11-19T08:17:50.169Z,5.16
2017-11-19T08:18:58.705Z,5.15
2017-11-19T08:20:07.518Z,5.13
2017-11-19T08:21:16.323Z,5.2
2017-11-19T08:22:25.409Z,5.13
2017-11-19T08:23:34.215Z,5.13
2017-11-19T08:24:42.751Z,5.21
2017-11-19T08:25:51.285Z,5.24
2017-11-19T08:27:00.091Z,5.26
2017-11-19T08:28:08.900Z,5.24
2017-11-19T08:29:18.540Z,5.23
2017-11-19T08:30:27.349Z,5.37
2017-11-19T08:31:36.158Z,5.33
2017-11-19T08:32:44.978Z,5.34
2017-11-19T08:33:54.068Z,5.28
2017-11-19T08:35:02.609Z,5.39
2017-11-19T08:36:11.420Z,5.41
2017-11-19T08:37:20.226Z,5.44
2017-11-19T08:38:29.044Z,5.45
2017-11-19T08:39:37.859Z,5.48
2017-11-19T08:40:46.672Z,5.55
2017-11-19T08:41:55.206Z,5.6
2017-11-19T08:43:04.286Z,5.69
2017-11-19T08:44:12.832Z,5.67
2017-11-19T08:45:21.370Z,5.63
2017-11-19T08:46:30.172Z,5.64
2017-11-19T08:47:38.979Z,5.7
2017-11-19T08:48:47.515Z,5.72
2017-11-19T08:49:56.056Z,5.66
2017-11-19T08:51:05.135Z,5.67
2017-11-19T08:52:14.210Z,5.63
2017-11-19T08:53:22.745Z,5.67
2017-11-19T08:54:31.284Z,5.67
2017-11-19T08:55:40.092Z,5.69
2017-11-19T08:56:49.179Z,5.7
2017-11-19T08:57:58.250Z,5.73
2017-11-19T08:59:06.785Z,5.67
2017-11-19T09:00:15.330Z,5.73
2017-11-19T09:01:23.862Z,5.81
2017-11-19T09:02:32.656Z,5.82
2017-11-19T09:03:41.464Z,5.78
2017-11-19T09:04:50.000Z,5.77
2017-11-19T09:05:58.807Z,5.87
2017-11-19T09:07:07.346Z,5.77
2017-11-19T09:08:15.881Z,5.87
2017-11-19T09:09:24.414Z,5.78
2017-11-19T09:10:32.950Z,5.82
2017-11-19T09:11:41.759Z,5.89
2017-11-19T09:12:50.864Z,5.87
2017-11-19T09:13:59.949Z,5.99
2017-11-19T09:15:08.760Z,5.89
2017-11-19T09:16:17.309Z,5.89
2017-11-19T09:17:25.838Z,5.92
2017-11-19T09:18:34.921Z,5.98
2017-11-19T09:19:44.279Z,6
2017-11-19T09:20:52.815Z,6.03
2017-11-19T09:22:01.895Z,6.03
2017-11-19T09:23:10.987Z,6.03
2017-11-19T09:24:19.791Z,6.13
2017-11-19T09:25:28.330Z,6.15
2017-11-19T09:26:36.865Z,6.09
2017-11-19T09:27:45.673Z,6.09
2017-11-19T09:28:54.482Z,6.2
2017-11-19T09:30:03.559Z,6.24
2017-11-19T09:31:12.665Z,6.24
2017-11-19T09:32:21.472Z,6.29
2017-11-19T09:33:30.282Z,6.25
2017-11-19T09:34:39.632Z,6.34
2017-11-19T09:35:48.441Z,6.34
2017-11-19T09:36:57.803Z,6.39
2017-11-19T09:38:06.885Z,6.37
2017-11-19T09:39:16.240Z,6.36
2017-11-19T09:40:25.041Z,6.4
2017-11-19T09:41:33.854Z,6.47
2017-11-19T09:42:42.667Z,6.54
2017-11-19T09:43:51.474Z,6.55
2017-11-19T09:45:00.558Z,6.6
2017-11-19T09:46:10.067Z,6.57
2017-11-19T09:47:18.875Z,6.55
2017-11-19T09:48:27.953Z,6.62
2017-11-19T09:49:36.488Z,6.6
2017-11-19T09:50:45.023Z,6.6
2017-11-19T09:51:53.834Z,6.68
2017-11-19T09:53:02.922Z,6.75
2017-11-19T09:54:11.732Z,6.76
2017-11-19T09:55:20.539Z,6.78
2017-11-19T09:56:29.352Z,6.76
2017-11-19T09:57:38.160Z,6.8
2017-11-19T09:58:46.971Z,6.79
2017-11-19T09:59:55.519Z,6.82
2017-11-19T10:01:04.873Z,6.85
2017-11-19T10:02:13.446Z,6.82
2017-11-19T10:03:21.987Z,6.76
2017-11-19T10:04:30.521Z,6.82
2017-11-19T10:05:39.085Z,6.86
2017-11-19T10:06:47.894Z,6.95
2017-11-19T10:07:56.988Z,7
2017-11-19T10:09:05.525Z,7.05
2017-11-19T10:10:14.340Z,7.08
2017-11-19T10:11:23.170Z,7.22
2017-11-19T10:12:31.707Z,7.31
2017-11-19T10:13:40.800Z,7.4
2017-11-19T10:14:49.420Z,7.39
2017-11-19T10:15:57.958Z,7.39
2017-11-19T10:17:06.781Z,7.44
2017-11-19T10:18:15.316Z,7.36
2017-11-19T10:19:23.855Z,7.44
2017-11-19T10:20:32.394Z,7.47
2017-11-19T10:21:41.474Z,7.58
2017-11-19T10:22:50.284Z,7.52
2017-11-19T10:23:59.102Z,7.54
2017-11-19T10:25:07.912Z,7.55
2017-11-19T10:26:16.721Z,7.51
2017-11-19T10:27:25.259Z,7.55
2017-11-19T10:28:33.793Z,7.44
2017-11-19T10:29:42.332Z,7.45
2017-11-19T10:30:50.882Z,7.51
2017-11-19T10:31:59.692Z,7.54
2017-11-19T10:33:08.509Z,7.47
2017-11-19T10:34:17.045Z,7.52
2017-11-19T10:35:25.853Z,7.51
2017-11-19T10:36:34.738Z,7.51
2017-11-19T10:37:43.353Z,7.51
2017-11-19T10:38:52.150Z,7.55
2017-11-19T10:40:00.959Z,7.54
2017-11-19T10:41:09.507Z,7.56
2017-11-19T10:42:18.045Z,7.49
2017-11-19T10:43:26.581Z,7.45
2017-11-19T10:44:35.118Z,7.47
2017-11-19T10:45:43.659Z,7.58
2017-11-19T10:46:53.063Z,7.55
2017-11-19T10:48:01.604Z,7.55
2017-11-19T10:49:10.684Z,7.51
2017-11-19T10:50:19.500Z,7.55
2017-11-19T10:51:28.311Z,7.54
2017-11-19T10:52:37.130Z,7.51
2017-11-19T10:53:46.225Z,7.68
2017-11-19T10:54:55.348Z,7.61
2017-11-19T10:56:04.702Z,7.7
2017-11-19T10:57:14.062Z,7.71
2017-11-19T10:58:22.601Z,7.73
2017-11-19T10:59:31.138Z,7.73
2017-11-19T11:00:39.945Z,7.77
2017-11-19T11:01:48.485Z,7.73
2017-11-19T11:02:57.587Z,7.77
2017-11-19T11:04:06.406Z,7.86
2017-11-19T11:05:16.054Z,7.86
2017-11-19T11:06:24.902Z,7.82
2017-11-19T11:07:33.727Z,7.86
2017-11-19T11:08:42.254Z,7.88
2017-11-19T11:09:51.064Z,7.93
2017-11-19T11:10:59.613Z,7.91
2017-11-19T11:12:08.410Z,8.04
2017-11-19T11:13:17.221Z,7.99
2017-11-19T11:14:26.037Z,8.06
2017-11-19T11:15:34.840Z,8.03
2017-11-19T11:16:43.927Z,8.13
2017-11-19T11:17:52.741Z,8.25
2017-11-19T11:19:01.278Z,8.32
2017-11-19T11:20:09.849Z,8.35
2017-11-19T11:21:18.393Z,8.34
2017-11-19T11:22:27.469Z,8.46
2017-11-19T11:23:36.280Z,8.61
2017-11-19T11:24:45.109Z,8.58
2017-11-19T11:25:53.640Z,8.72
2017-11-19T11:27:02.468Z,8.82
2017-11-19T11:28:11.281Z,8.76
2017-11-19T11:29:20.098Z,8.72
2017-11-19T11:30:28.969Z,8.77
2017-11-19T11:31:37.532Z,8.8
2017-11-19T11:32:46.573Z,8.71
2017-11-19T11:33:55.509Z,8.64
2017-11-19T11:35:04.779Z,8.68
2017-11-19T11:36:13.612Z,8.71
2017-11-19T11:37:22.468Z,8.67
2017-11-19T11:38:31.128Z,8.76
2017-11-19T11:39:39.736Z,8.76
2017-11-19T11:40:48.417Z,8.77
2017-11-19T11:41:57.325Z,8.74
2017-11-19T11:43:06.204Z,8.76
2017-11-19T11:44:14.779Z,8.79
2017-11-19T11:45:23.326Z,8.82
2017-11-19T11:46:32.615Z,8.79
2017-11-19T11:47:41.511Z,8.71
2017-11-19T11:48:50.472Z,8.72
2017-11-19T11:49:59.328Z,8.67
2017-11-19T11:51:08.532Z,8.72
2017-11-19T11:52:17.288Z,8.68
2017-11-19T11:53:26.165Z,8.68
2017-11-19T11:54:35.067Z,8.72
2017-11-19T11:55:44.508Z,8.64
2017-11-19T11:56:53.079Z,8.72
2017-11-19T11:58:01.797Z,8.65
2017-11-19T11:59:10.608Z,8.65
2017-11-19T12:00:19.689Z,8.74
2017-11-19T12:01:28.616Z,8.74
2017-11-19T12:02:37.575Z,8.77
2017-11-19T12:03:46.127Z,8.8
2017-11-19T12:04:54.795Z,8.83
2017-11-19T12:06:03.969Z,8.82
2017-11-19T12:07:12.542Z,8.94
2017-11-19T12:08:21.413Z,8.87
2017-11-19T12:09:29.955Z,9
2017-11-19T12:10:39.076Z,8.98
2017-11-19T12:11:48.055Z,9.11
2017-11-19T12:12:56.703Z,9.12
2017-11-19T12:14:05.659Z,9.24
2017-11-19T12:15:14.510Z,9.34
2017-11-19T12:16:23.368Z,9.38
2017-11-19T12:17:32.058Z,9.6
2017-11-19T12:18:40.635Z,9.53
2017-11-19T12:19:49.764Z,9.62
2017-11-19T12:20:59.119Z,9.67
2017-11-19T12:22:07.659Z,9.71
2017-11-19T12:23:16.743Z,9.71
2017-11-19T12:24:25.823Z,9.75
2017-11-19T12:25:34.648Z,9.84
2017-11-19T12:26:43.732Z,9.9
2017-11-19T12:27:52.544Z,9.93
2017-11-19T12:29:01.356Z,9.95
2017-11-19T12:30:10.987Z,9.89
2017-11-19T12:31:19.528Z,9.92
2017-11-19T12:32:28.345Z,9.85
2017-11-19T12:33:37.430Z,9.98
2017-11-19T12:34:46.517Z,9.85
2017-11-19T12:35:55.329Z,9.9
2017-11-19T12:37:04.144Z,9.92
2017-11-19T12:38:12.963Z,9.89
2017-11-19T12:39:21.786Z,9.96
2017-11-19T12:40:30.607Z,9.96
2017-11-19T12:41:39.147Z,9.99
2017-11-19T12:42:47.686Z,9.96
2017-11-19T12:43:56.223Z,10.05
2017-11-19T12:45:04.764Z,10
2017-11-19T12:46:13.848Z,10.14
2017-11-19T12:47:22.390Z,10.11
2017-11-19T12:48:30.938Z,10.21
2017-11-19T12:49:39.744Z,10.23
2017-11-19T12:50:48.312Z,10.23
2017-11-19T12:51:57.124Z,10.18
2017-11-19T12:53:05.663Z,10.14
2017-11-19T12:54:14.199Z,10.15
2017-11-19T12:55:23.012Z,10.13
2017-11-19T12:56:31.551Z,10.15
2017-11-19T12:57:40.091Z,9.99
2017-11-19T12:58:48.905Z,10.08
2017-11-19T12:59:57.724Z,9.95
2017-11-19T13:01:06.538Z,10.02
2017-11-19T13:02:15.350Z,10.03
2017-11-19T13:03:23.891Z,10.02
2017-11-19T13:04:32.702Z,10
2017-11-19T13:05:42.072Z,9.9
2017-11-19T13:06:50.614Z,9.92
2017-11-19T13:07:59.426Z,9.92
2017-11-19T13:09:08.532Z,9.99
2017-11-19T13:10:17.334Z,9.99
2017-11-19T13:11:26.153Z,9.96
2017-11-19T13:12:34.695Z,9.89
2017-11-19T13:13:43.788Z,9.78
2017-11-19T13:14:52.328Z,9.92
2017-11-19T13:16:01.684Z,9.78
2017-11-19T13:17:10.493Z,9.78
2017-11-19T13:18:19.582Z,9.77
2017-11-19T13:19:28.118Z,9.77
2017-11-19T13:20:37.252Z,9.75
2017-11-19T13:21:45.790Z,9.64
2017-11-19T13:22:54.629Z,9.67
2017-11-19T13:24:03.441Z,9.75
2017-11-19T13:25:11.978Z,9.7
2017-11-19T13:26:20.827Z,9.64
2017-11-19T13:27:29.368Z,9.6
2017-11-19T13:28:38.216Z,9.55
2017-11-19T13:29:46.889Z,9.39
2017-11-19T13:30:55.472Z,9.39
2017-11-19T13:32:04.058Z,9.26
2017-11-19T13:33:12.709Z,9.27
2017-11-19T13:34:21.557Z,9.2
2017-11-19T13:35:30.557Z,9.05
2017-11-19T13:36:39.454Z,8.87
2017-11-19T13:37:47.996Z,8.8
2017-11-19T13:38:57.089Z,8.69
2017-11-19T13:40:05.904Z,8.58
2017-11-19T13:41:14.994Z,8.53
2017-11-19T13:42:23.558Z,8.52
2017-11-19T13:43:32.096Z,8.43
2017-11-19T13:44:41.176Z,8.36
2017-11-19T13:45:49.717Z,8.34
2017-11-19T13:46:58.526Z,8.31
2017-11-19T13:48:07.610Z,8.19
2017-11-19T13:49:16.443Z,8.11
2017-11-19T13:50:25.247Z,8.04
2017-11-19T13:51:33.784Z,8.01
2017-11-19T13:52:42.325Z,7.95
2017-11-19T13:53:51.444Z,7.95
2017-11-19T13:54:59.979Z,7.95
2017-11-19T13:56:09.063Z,7.93
2017-11-19T13:57:17.597Z,7.89
2017-11-19T13:58:26.143Z,7.88
2017-11-19T13:59:34.679Z,7.82
2017-11-19T14:00:43.219Z,7.86
2017-11-19T14:01:51.751Z,7.83
2017-11-19T14:03:00.561Z,7.83
2017-11-19T14:04:09.394Z,7.74
2017-11-19T14:05:17.926Z,7.75
2017-11-19T14:06:26.465Z,7.73
2017-11-19T14:07:35.552Z,7.64
2017-11-19T14:08:44.359Z,7.67
2017-11-19T14:09:53.176Z,7.7
2017-11-19T14:11:02.533Z,7.68
2017-11-19T14:12:11.071Z,7.54
2017-11-19T14:13:20.265Z,7.52
2017-11-19T14:14:29.357Z,7.52
2017-11-19T14:15:38.198Z,7.56
2017-11-19T14:16:46.737Z,7.51
2017-11-19T14:17:55.280Z,7.58
2017-11-19T14:19:04.091Z,7.52
2017-11-19T14:20:12.900Z,7.49
2017-11-19T14:21:21.705Z,7.54
2017-11-19T14:22:30.518Z,7.56
2017-11-19T14:23:39.600Z,7.52
2017-11-19T14:24:48.687Z,7.52
2017-11-19T14:25:57.496Z,7.61
2017-11-19T14:27:06.035Z,7.59
2017-11-19T14:28:15.111Z,7.54
2017-11-19T14:29:23.651Z,7.48
2017-11-19T14:30:32.460Z,7.55
2017-11-19T14:31:41.273Z,7.54
2017-11-19T14:32:50.082Z,7.58
2017-11-19T14:33:58.900Z,7.54
2017-11-19T14:35:07.435Z,7.58
2017-11-19T14:36:16.251Z,7.61
2017-11-19T14:37:25.061Z,7.52
2017-11-19T14:38:33.870Z,7.64
2017-11-19T14:39:42.409Z,7.68
2017-11-19T14:40:50.949Z,7.61
2017-11-19T14:41:59.774Z,7.63
2017-11-19T14:43:08.313Z,7.64
2017-11-19T14:44:16.860Z,7.63
2017-11-19T14:45:25.671Z,7.67
2017-11-19T14:46:34.489Z,7.58
2017-11-19T14:47:43.303Z,7.59
2017-11-19T14:48:52.657Z,7.54
2017-11-19T14:50:01.738Z,7.52
2017-11-19T14:51:10.817Z,7.51
2017-11-19T14:52:19.630Z,7.52
2017-11-19T14:53:28.173Z,7.47
2017-11-19T14:54:36.713Z,7.45
2017-11-19T14:55:45.250Z,7.49
2017-11-19T14:56:54.089Z,7.39
2017-11-19T14:58:02.617Z,7.4
2017-11-19T14:59:11.425Z,7.41
2017-11-19T15:00:20.502Z,7.45
2017-11-19T15:01:29.314Z,7.41
2017-11-19T15:02:38.124Z,7.45
2017-11-19T15:03:46.668Z,7.47
2017-11-19T15:04:55.482Z,7.51
2017-11-19T15:06:04.046Z,7.55
2017-11-19T15:07:13.130Z,7.54
2017-11-19T15:08:22.222Z,7.45
2017-11-19T15:09:31.022Z,7.54
2017-11-19T15:10:40.631Z,7.56
2017-11-19T15:11:49.441Z,7.51
2017-11-19T15:12:58.251Z,7.56
2017-11-19T15:14:07.334Z,7.64
2017-11-19T15:15:16.145Z,7.55
2017-11-19T15:16:25.153Z,7.61
2017-11-19T15:17:33.957Z,7.7
2017-11-19T15:18:43.088Z,7.67